Time;durP1;ratioP1;P1;durP2;ratioP2;P2;SDS_P1;SDS_P2;PMS_P1;PMS_P2;Temp;Humidity;BMP_temperature;BMP_pressure;BME280_temperature;BME280_humidity;BME280_pressure;Samples;Min_cycle;Max_cycle;Signal;HPM_P1;HPM_P2
2021/12/16 00:03:16;;;;;;;;;185.25;169.75;5.60;93.60;;;;;;5073999;28;8744;-76
2021/12/16 00:08:03;;;;;;;;;199.25;188.75;5.40;94.50;;;;;;5073896;28;8808;-74
2021/12/16 00:10:39;;;;;;;;;212.75;199.75;5.10;96.70;;;;;;5073985;28;8788;-74
2021/12/16 00:33:13;;;;;;;;;217.75;205.25;4.40;99.90;;;;;;5073703;28;9411;-74
2021/12/16 00:35:07;;;;;;;;;229.00;203.75;4.70;99.90;;;;;;5069692;28;8855;-74
2021/12/16 00:37:32;;;;;;;;;229.00;218.00;4.70;99.90;;;;;;5074504;28;8795;-74
2021/12/16 00:39:58;;;;;;;;;213.00;196.00;4.70;99.90;;;;;;5077328;28;8765;-74
2021/12/16 00:42:44;;;;;;;;;235.00;211.00;4.70;99.90;;;;;;5077448;28;8879;-74
2021/12/16 00:45:39;;;;;;;;;232.00;218.50;4.60;99.90;;;;;;5077310;28;8890;-74
2021/12/16 00:48:00;;;;;;;;;242.75;226.50;4.50;99.90;;;;;;5076864;28;8838;-74
2021/12/16 00:55:49;;;;;;;;;204.50;193.00;4.60;99.90;;;;;;5077141;28;8728;-74
2021/12/16 00:58:20;;;;;;;;;219.25;203.50;4.70;99.90;;;;;;5077243;28;8794;-73
2021/12/16 01:00:52;;;;;;;;;190.50;174.75;4.80;99.90;;;;;;5077191;28;8873;-74
2021/12/16 01:04:20;;;;;;;;;173.25;156.75;4.80;99.90;;;;;;5075918;28;8796;-73
2021/12/16 01:36:45;;;;;;;;;146.25;136.25;4.40;99.90;;;;;;5076590;28;8752;-75
2021/12/16 01:39:34;;;;;;;;;151.75;140.75;4.40;99.90;;;;;;5075950;28;8811;-73
2021/12/16 01:55:22;;;;;;;;;117.00;106.50;4.20;99.90;;;;;;5076001;28;8870;-74
2021/12/16 01:57:53;;;;;;;;;116.25;109.25;4.00;99.90;;;;;;5076130;28;8774;-74
2021/12/16 02:00:57;;;;;;;;;112.00;105.75;4.00;99.90;;;;;;5075857;28;8749;-75
2021/12/16 02:03:38;;;;;;;;;127.50;119.75;4.10;99.90;;;;;;5076145;28;8793;-74
2021/12/16 02:06:14;;;;;;;;;126.25;118.75;4.00;99.90;;;;;;5075515;28;8728;-73
2021/12/16 02:08:40;;;;;;;;;118.25;114.00;4.00;99.90;;;;;;5075775;28;8761;-73
2021/12/16 02:35:27;;;;;;;;;111.50;104.00;4.90;99.90;;;;;;5075244;28;8761;-75
2021/12/16 02:37:53;;;;;;;;;102.25;97.00;5.30;99.90;;;;;;5075333;28;8787;-74
2021/12/16 02:40:21;;;;;;;;;108.50;100.25;5.10;99.90;;;;;;5075272;28;8837;-73
2021/12/16 02:43:25;;;;;;;;;109.50;107.75;5.10;99.90;;;;;;5075238;28;8857;-73
2021/12/16 02:48:38;;;;;;;;;105.25;100.50;4.60;99.90;;;;;;5074900;28;9418;-75
2021/12/16 02:51:27;;;;;;;;;101.00;94.50;4.40;99.90;;;;;;5074906;28;8764;-73
2021/12/16 02:54:00;;;;;;;;;105.75;97.75;4.40;99.90;;;;;;5074770;28;8813;-75
2021/12/16 02:56:26;;;;;;;;;106.50;100.25;4.40;99.90;;;;;;5073760;28;8886;-75
2021/12/16 02:58:54;;;;;;;;;108.75;105.25;4.40;99.90;;;;;;5074725;28;8768;-73
2021/12/16 03:01:30;;;;;;;;;110.50;103.25;4.40;99.90;;;;;;5074561;28;8783;-73
2021/12/16 03:03:58;;;;;;;;;93.50;77.75;4.60;99.90;;;;;;5074693;28;8764;-74
2021/12/16 03:06:26;;;;;;;;;99.75;92.50;4.40;99.90;;;;;;5074527;28;8788;-72
2021/12/16 03:08:52;;;;;;;;;98.25;84.50;4.70;99.90;;;;;;5074624;28;8776;-74
2021/12/16 03:16:29;;;;;;;;;112.75;105.50;4.60;99.90;;;;;;5074545;28;8782;-74
2021/12/16 03:19:16;;;;;;;;;105.75;97.00;4.60;99.90;;;;;;5074766;28;8784;-74
2021/12/16 03:21:47;;;;;;;;;102.50;94.50;4.50;99.90;;;;;;5071288;28;8765;-74
2021/12/16 03:24:35;;;;;;;;;100.25;86.00;5.10;99.90;;;;;;5054097;28;8861;-74
2021/12/16 03:29:59;;;;;;;;;103.50;91.25;5.40;99.00;;;;;;5054581;28;8767;-74
2021/12/16 03:35:29;;;;;;;;;106.00;96.75;4.90;99.90;;;;;;5054528;28;8791;-76
2021/12/16 03:38:08;;;;;;;;;95.50;84.00;5.10;99.90;;;;;;5054325;28;8790;-75
2021/12/16 03:40:35;;;;;;;;;100.25;89.50;4.70;99.90;;;;;;5054253;28;8759;-73
2021/12/16 03:43:04;;;;;;;;;99.25;88.75;4.40;99.90;;;;;;5054438;28;8881;-73
2021/12/16 03:48:43;;;;;;;;;112.00;103.50;5.40;99.90;;;;;;5045631;28;9007;-73
2021/12/16 03:51:14;;;;;;;;;110.00;104.50;6.00;96.60;;;;;;5053197;28;8822;-73
2021/12/16 03:53:43;;;;;;;;;103.50;96.25;5.50;97.40;;;;;;5054291;28;8782;-73
2021/12/16 03:56:09;;;;;;;;;104.00;96.25;5.80;97.30;;;;;;5054065;28;8850;-73
2021/12/16 03:58:35;;;;;;;;;101.75;96.50;6.30;94.20;;;;;;5054031;28;8763;-73
2021/12/16 04:01:06;;;;;;;;;113.00;106.50;6.40;92.30;;;;;;5054013;28;8767;-73
2021/12/16 04:03:32;;;;;;;;;110.50;106.00;6.10;93.30;;;;;;5054140;28;8755;-73
2021/12/16 04:05:59;;;;;;;;;99.75;90.50;6.40;91.90;;;;;;5053804;28;9463;-73
2021/12/16 04:08:25;;;;;;;;;99.50;91.25;6.50;90.40;;;;;;5054058;28;8778;-73
2021/12/16 04:11:05;;;;;;;;;105.00;98.25;5.80;94.10;;;;;;5054157;28;8771;-73
2021/12/16 04:13:41;;;;;;;;;100.50;95.25;5.60;96.50;;;;;;5056114;28;8775;-73
2021/12/16 04:16:08;;;;;;;;;100.75;95.75;5.90;94.30;;;;;;5057829;28;8755;-73
2021/12/16 04:18:35;;;;;;;;;103.50;93.00;6.10;93.40;;;;;;5057651;28;8819;-73
2021/12/16 04:21:02;;;;;;;;;100.00;90.75;5.80;94.90;;;;;;5057682;28;8901;-73
2021/12/16 04:23:28;;;;;;;;;97.50;89.00;6.10;93.20;;;;;;5057923;28;8870;-73
2021/12/16 04:25:54;;;;;;;;;104.00;94.00;6.10;93.70;;;;;;5057883;28;8778;-72
2021/12/16 04:28:24;;;;;;;;;98.00;88.00;6.30;92.10;;;;;;5057597;28;8759;-73
2021/12/16 04:30:49;;;;;;;;;103.00;97.00;6.70;90.50;;;;;;5057730;28;8792;-73
2021/12/16 04:33:16;;;;;;;;;99.25;92.75;6.70;88.60;;;;;;5057368;28;8806;-73
2021/12/16 04:35:42;;;;;;;;;101.00;91.00;6.70;88.30;;;;;;5057479;28;8755;-73
2021/12/16 04:38:11;;;;;;;;;95.25;82.75;6.50;90.60;;;;;;5057570;28;8779;-73
2021/12/16 04:40:39;;;;;;;;;87.25;70.25;6.10;92.30;;;;;;5069761;28;8797;-73
2021/12/16 04:43:07;;;;;;;;;93.25;81.50;5.10;98.00;;;;;;5068193;28;8774;-73
2021/12/16 04:45:34;;;;;;;;;94.00;84.25;4.50;99.90;;;;;;5077599;28;9288;-73
2021/12/16 04:48:00;;;;;;;;;85.00;69.25;4.50;99.90;;;;;;5077211;28;9487;-73
2021/12/16 04:50:26;;;;;;;;;95.75;83.25;4.40;99.90;;;;;;5077556;28;8916;-73
2021/12/16 04:52:52;;;;;;;;;94.50;77.00;4.40;99.90;;;;;;5077084;28;8875;-73
2021/12/16 04:55:20;;;;;;;;;101.00;80.00;4.20;99.90;;;;;;5077087;28;8875;-73
2021/12/16 04:57:47;;;;;;;;;91.75;75.75;3.90;99.90;;;;;;5077045;28;8768;-73
2021/12/16 05:00:17;;;;;;;;;92.50;79.25;4.00;99.90;;;;;;5077208;28;8760;-73
2021/12/16 05:02:44;;;;;;;;;99.25;87.00;4.10;99.90;;;;;;5076952;28;8901;-73
2021/12/16 05:05:10;;;;;;;;;99.75;88.00;4.50;99.90;;;;;;5077453;28;8780;-73
2021/12/16 05:07:36;;;;;;;;;90.50;75.25;5.30;99.90;;;;;;5076763;28;8789;-73
2021/12/16 05:10:10;;;;;;;;;88.75;71.25;5.40;98.80;;;;;;5076846;28;8795;-73
2021/12/16 05:12:50;;;;;;;;;77.25;64.25;4.90;99.90;;;;;;5075656;28;8768;-73
2021/12/16 05:15:23;;;;;;;;;84.50;67.00;4.80;99.90;;;;;;5076644;28;8765;-73
2021/12/16 05:17:52;;;;;;;;;90.00;72.00;4.30;99.90;;;;;;5072476;28;8788;-72
2021/12/16 05:20:22;;;;;;;;;93.75;71.25;4.30;99.90;;;;;;5076953;28;8815;-73
2021/12/16 05:28:07;;;;;;;;;80.00;65.75;4.50;99.90;;;;;;5076546;28;9451;-73
2021/12/16 05:30:33;;;;;;;;;88.00;68.75;4.40;99.90;;;;;;5076716;28;8782;-72
2021/12/16 05:32:59;;;;;;;;;84.00;68.75;4.50;99.90;;;;;;5076327;28;8760;-75
2021/12/16 05:35:26;;;;;;;;;91.25;73.50;4.30;99.90;;;;;;5076479;28;8782;-73
2021/12/16 05:37:52;;;;;;;;;84.25;67.75;4.20;99.90;;;;;;5076545;28;8772;-71
2021/12/16 05:40:25;;;;;;;;;85.00;68.75;4.40;99.90;;;;;;5065167;28;8890;-73
2021/12/16 05:43:04;;;;;;;;;81.00;66.25;4.60;99.90;;;;;;5061586;28;8779;-73
2021/12/16 05:45:30;;;;;;;;;82.75;66.75;4.40;99.90;;;;;;5065191;28;8906;-66
2021/12/16 05:48:00;;;;;;;;;91.50;74.75;4.30;99.90;;;;;;5075077;28;8811;-66
2021/12/16 05:50:29;;;;;;;;;88.00;69.50;4.30;99.90;;;;;;5076469;28;8819;-72
2021/12/16 05:52:54;;;;;;;;;80.50;67.50;4.40;99.90;;;;;;5076011;28;8741;-70
2021/12/16 05:55:21;;;;;;;;;85.75;69.00;4.40;99.90;;;;;;5072738;28;8807;-66
2021/12/16 05:57:48;;;;;;;;;92.25;75.50;4.40;99.90;;;;;;5059938;28;8901;-67
2021/12/16 06:00:24;;;;;;;;;83.25;68.00;4.60;99.90;;;;;;5062341;28;8792;-70
2021/12/16 06:02:51;;;;;;;;;79.75;65.00;4.50;99.90;;;;;;5075945;28;8768;-70
2021/12/16 06:05:17;;;;;;;;;89.50;73.00;4.50;99.90;;;;;;5070764;28;8797;-63
2021/12/16 06:07:44;;;;;;;;;81.75;67.75;4.30;99.90;;;;;;5060868;28;9492;-70
2021/12/16 06:10:31;;;;;;;;;75.50;62.25;4.20;99.90;;;;;;5055773;28;8751;-69
2021/12/16 06:12:57;;;;;;;;;83.75;66.75;4.00;99.90;;;;;;5055522;28;8779;-73
2021/12/16 06:28:52;;;;;;;;;105.50;97.25;4.20;99.90;;;;;;5055387;28;8759;-65
2021/12/16 06:31:18;;;;;;;;;103.50;95.50;4.20;99.90;;;;;;5055213;28;8894;-65
2021/12/16 06:33:44;;;;;;;;;104.75;99.00;4.50;99.90;;;;;;5055025;28;8799;-65
2021/12/16 06:36:10;;;;;;;;;98.75;83.75;4.60;99.90;;;;;;5054853;28;8837;-65
2021/12/16 06:38:36;;;;;;;;;105.75;102.75;4.70;99.90;;;;;;5055098;28;8836;-64
2021/12/16 06:41:02;;;;;;;;;101.25;94.75;4.60;99.90;;;;;;5055055;28;8889;-64
2021/12/16 06:43:28;;;;;;;;;96.00;81.00;4.70;99.90;;;;;;5055235;28;8775;-64
2021/12/16 06:45:56;;;;;;;;;87.00;72.50;4.80;99.90;;;;;;5054985;28;9459;-65
2021/12/16 06:48:28;;;;;;;;;92.50;76.00;4.70;99.90;;;;;;5055068;28;9454;-64
2021/12/16 06:51:08;;;;;;;;;89.75;72.75;4.90;99.90;;;;;;5054905;28;8830;-65
2021/12/16 06:54:03;;;;;;;;;97.50;84.25;5.00;99.90;;;;;;5054785;28;8799;-64
2021/12/16 06:56:33;;;;;;;;;93.75;80.00;4.90;99.90;;;;;;5054720;28;8972;-64
2021/12/16 06:59:06;;;;;;;;;97.00;85.00;5.10;99.90;;;;;;5054766;28;8893;-65
2021/12/16 07:04:09;;;;;;;;;93.25;74.25;4.80;99.90;;;;;;5054920;28;8771;-64
2021/12/16 07:06:36;;;;;;;;;93.00;79.75;4.70;99.90;;;;;;5054463;28;8779;-64
2021/12/16 07:09:11;;;;;;;;;99.50;91.25;4.80;99.90;;;;;;5054433;28;8786;-63
2021/12/16 07:11:41;;;;;;;;;103.00;94.25;4.90;99.90;;;;;;5054442;28;8799;-65
2021/12/16 07:14:16;;;;;;;;;96.75;84.25;5.00;99.90;;;;;;5054344;28;8834;-66
2021/12/16 07:16:48;;;;;;;;;95.25;85.00;5.20;99.90;;;;;;5054703;28;8873;-64
2021/12/16 07:19:14;;;;;;;;;99.25;91.50;5.30;98.80;;;;;;5054458;28;8815;-65
2021/12/16 07:21:43;;;;;;;;;99.50;87.25;5.00;99.90;;;;;;5054653;28;8840;-64
2021/12/16 07:24:12;;;;;;;;;101.25;94.50;4.90;99.90;;;;;;5054705;28;8751;-65
2021/12/16 07:26:38;;;;;;;;;99.75;92.00;4.80;99.90;;;;;;5054314;28;8771;-64
2021/12/16 07:29:05;;;;;;;;;101.00;94.25;4.80;99.90;;;;;;5054623;28;8799;-67
2021/12/16 07:31:33;;;;;;;;;112.50;103.75;5.00;99.90;;;;;;5054332;28;8787;-65
2021/12/16 07:33:59;;;;;;;;;111.25;104.25;4.80;99.90;;;;;;5054242;28;9440;-67
2021/12/16 07:36:25;;;;;;;;;108.25;101.25;5.20;99.90;;;;;;5054210;28;8767;-66
2021/12/16 07:38:52;;;;;;;;;105.75;95.75;5.30;99.90;;;;;;5054430;28;8779;-66
2021/12/16 07:41:21;;;;;;;;;124.25;117.50;5.40;99.40;;;;;;5054383;28;8755;-66
2021/12/16 07:44:09;;;;;;;;;106.75;103.50;5.30;99.50;;;;;;5054143;28;8810;-66
2021/12/16 07:46:41;;;;;;;;;115.50;110.75;5.40;99.40;;;;;;5054000;28;8763;-66
2021/12/16 07:49:10;;;;;;;;;116.25;109.75;5.40;98.90;;;;;;5057521;28;8795;-66
2021/12/16 07:51:38;;;;;;;;;125.25;117.75;5.40;98.70;;;;;;5058182;28;8778;-66
2021/12/16 07:54:06;;;;;;;;;122.00;110.75;5.40;98.40;;;;;;5058098;28;8791;-64
2021/12/16 07:56:32;;;;;;;;;108.50;106.75;5.50;98.00;;;;;;5058136;28;8767;-64
2021/12/16 07:58:58;;;;;;;;;123.75;110.25;5.40;99.10;;;;;;5058369;28;8779;-65
2021/12/16 08:01:26;;;;;;;;;116.50;108.00;5.10;99.90;;;;;;5058036;28;9402;-65
2021/12/16 08:03:52;;;;;;;;;123.50;120.25;4.80;99.90;;;;;;5057776;28;8907;-66
2021/12/16 08:06:23;;;;;;;;;126.00;114.25;4.80;99.90;;;;;;5058018;28;8779;-66
2021/12/16 08:08:56;;;;;;;;;114.75;111.50;5.00;99.90;;;;;;5057921;28;9562;-65
2021/12/16 08:11:24;;;;;;;;;125.00;114.25;4.90;99.90;;;;;;5057988;28;8877;-64
2021/12/16 08:13:50;;;;;;;;;138.25;129.75;4.90;99.90;;;;;;5058074;28;8901;-66
2021/12/16 08:16:16;;;;;;;;;128.75;117.50;5.00;99.90;;;;;;5057807;28;8790;-66
2021/12/16 08:18:42;;;;;;;;;134.25;127.50;4.90;99.90;;;;;;5057877;28;8807;-66
2021/12/16 08:21:09;;;;;;;;;130.50;128.75;4.90;99.90;;;;;;5057604;28;9654;-67
2021/12/16 08:23:34;;;;;;;;;134.25;129.00;5.00;99.90;;;;;;5057494;28;8760;-68
2021/12/16 08:26:02;;;;;;;;;134.50;130.75;5.00;99.90;;;;;;5057597;28;8801;-66
2021/12/16 08:28:28;;;;;;;;;137.25;125.00;4.90;99.90;;;;;;5057432;28;8776;-65
2021/12/16 08:30:54;;;;;;;;;103.25;100.75;5.00;99.90;;;;;;5057487;28;8759;-66
2021/12/16 08:33:20;;;;;;;;;118.50;113.75;4.90;99.90;;;;;;5057282;28;8806;-66
2021/12/16 08:35:50;;;;;;;;;117.50;109.50;4.80;99.90;;;;;;5057454;28;8762;-66
2021/12/16 08:38:19;;;;;;;;;127.75;123.50;4.90;99.90;;;;;;5057358;28;8762;-66
2021/12/16 08:40:47;;;;;;;;;115.50;109.25;5.20;99.90;;;;;;5057418;28;8908;-66
2021/12/16 08:43:13;;;;;;;;;121.50;107.75;5.40;99.90;;;;;;5057560;28;8935;-65
2021/12/16 08:45:41;;;;;;;;;136.50;125.50;5.50;99.90;;;;;;5057423;28;8775;-65
2021/12/16 08:48:08;;;;;;;;;115.75;112.25;5.50;99.90;;;;;;5057415;28;9466;-67
2021/12/16 08:50:36;;;;;;;;;127.00;119.25;5.30;99.90;;;;;;5057471;28;8783;-65
2021/12/16 08:53:04;;;;;;;;;123.50;118.00;5.30;99.90;;;;;;5056960;28;8771;-66
2021/12/16 08:55:32;;;;;;;;;111.00;107.50;5.50;99.90;;;;;;5057109;28;8916;-67
2021/12/16 08:57:58;;;;;;;;;123.00;121.25;5.60;99.50;;;;;;5057119;28;8771;-66
2021/12/16 09:00:28;;;;;;;;;132.75;126.00;5.50;99.90;;;;;;5056689;28;8778;-68
2021/12/16 09:02:54;;;;;;;;;120.75;118.25;5.40;99.90;;;;;;5057110;28;8763;-65
2021/12/16 09:05:21;;;;;;;;;109.50;106.75;5.40;99.90;;;;;;5056734;28;8775;-66
2021/12/16 09:07:48;;;;;;;;;126.25;125.00;5.60;99.70;;;;;;5056482;28;8822;-67
2021/12/16 09:10:21;;;;;;;;;107.00;103.50;5.70;98.80;;;;;;5056699;28;8783;-68
2021/12/16 09:12:53;;;;;;;;;108.25;99.50;5.60;99.00;;;;;;5056900;28;8775;-66
2021/12/16 09:15:23;;;;;;;;;114.25;109.25;5.70;99.20;;;;;;5056637;28;8799;-67
2021/12/16 09:17:52;;;;;;;;;124.75;118.00;5.70;98.50;;;;;;5056823;28;8840;-66
2021/12/16 09:20:19;;;;;;;;;107.00;103.75;5.60;99.80;;;;;;5056524;28;8807;-65
2021/12/16 09:22:45;;;;;;;;;109.75;104.00;5.80;97.70;;;;;;5056570;28;8763;-65
2021/12/16 09:25:12;;;;;;;;;103.75;98.75;5.80;98.70;;;;;;5056473;28;8877;-65
2021/12/16 09:27:39;;;;;;;;;94.25;84.50;5.60;99.60;;;;;;5056423;28;8799;-65
2021/12/16 09:30:12;;;;;;;;;106.50;104.00;5.90;98.50;;;;;;5056444;28;8774;-66
2021/12/16 09:32:38;;;;;;;;;110.25;108.00;5.90;97.80;;;;;;5056457;28;8798;-66
2021/12/16 09:35:07;;;;;;;;;105.00;101.75;6.00;97.90;;;;;;5056543;28;9476;-65
2021/12/16 09:37:33;;;;;;;;;100.75;98.75;6.10;96.50;;;;;;5056273;28;8865;-66
2021/12/16 09:40:01;;;;;;;;;100.50;97.50;6.20;96.30;;;;;;5056146;28;9045;-65
2021/12/16 09:42:27;;;;;;;;;101.00;96.50;6.40;94.40;;;;;;5055943;28;8798;-64
2021/12/16 09:44:54;;;;;;;;;96.50;89.50;6.20;94.80;;;;;;5056119;28;8783;-67
2021/12/16 09:47:22;;;;;;;;;98.25;90.25;6.10;96.10;;;;;;5055964;28;8763;-63
2021/12/16 09:49:48;;;;;;;;;108.25;92.50;6.20;95.80;;;;;;5056120;28;8794;-64
2021/12/16 09:52:14;;;;;;;;;96.75;90.50;6.20;95.90;;;;;;5056233;28;9366;-64
2021/12/16 09:54:42;;;;;;;;;101.50;94.25;6.10;96.30;;;;;;5055900;28;8810;-64
2021/12/16 09:57:09;;;;;;;;;96.25;88.00;6.20;96.40;;;;;;5055806;28;8897;-64
2021/12/16 09:59:35;;;;;;;;;99.25;90.50;6.30;96.00;;;;;;5055771;28;8767;-64
2021/12/16 10:02:09;;;;;;;;;95.75;83.75;6.30;96.40;;;;;;5055842;28;8797;-64
2021/12/16 10:04:36;;;;;;;;;107.50;94.75;6.30;96.40;;;;;;5055792;28;8762;-65
2021/12/16 10:07:11;;;;;;;;;97.00;91.25;6.20;97.40;;;;;;5055281;28;8806;-64
2021/12/16 10:09:37;;;;;;;;;96.75;90.75;6.40;95.20;;;;;;5055843;28;8790;-64
2021/12/16 10:12:10;;;;;;;;;100.25;91.50;6.60;95.60;;;;;;5054957;28;8894;-66
2021/12/16 10:17:26;;;;;;;;;98.00;92.75;6.90;92.60;;;;;;5055602;28;8909;-64
2021/12/16 10:19:54;;;;;;;;;101.50;94.50;6.90;93.30;;;;;;5055802;28;8795;-65
2021/12/16 10:22:24;;;;;;;;;87.75;74.00;6.80;93.10;;;;;;5055616;28;8767;-63
2021/12/16 10:24:53;;;;;;;;;93.50;85.75;6.80;93.00;;;;;;5055641;28;8755;-64
2021/12/16 10:27:26;;;;;;;;;95.00;89.25;6.70;93.00;;;;;;5055555;28;8810;-64
2021/12/16 10:30:25;;;;;;;;;94.50;86.75;6.70;93.20;;;;;;5055328;28;8848;-64
2021/12/16 10:32:51;;;;;;;;;92.75;84.50;6.50;93.80;;;;;;5055510;28;8766;-64
2021/12/16 10:35:18;;;;;;;;;89.50;80.75;6.70;93.20;;;;;;5055191;28;8811;-65
2021/12/16 10:37:55;;;;;;;;;92.50;83.50;6.70;92.80;;;;;;5055082;28;8801;-65
2021/12/16 10:40:50;;;;;;;;;101.75;95.50;6.50;93.40;;;;;;5055110;28;8797;-64
2021/12/16 10:43:33;;;;;;;;;98.75;91.00;6.50;94.10;;;;;;5055397;28;9433;-63
2021/12/16 10:45:58;;;;;;;;;97.00;89.75;6.60;93.80;;;;;;5054925;28;8774;-64
2021/12/16 10:48:42;;;;;;;;;92.50;88.25;6.60;93.30;;;;;;5055066;28;8763;-64
2021/12/16 10:51:07;;;;;;;;;90.75;81.50;7.00;91.90;;;;;;5055086;28;8778;-64
2021/12/16 10:53:48;;;;;;;;;93.75;85.75;7.10;90.50;;;;;;5054704;28;8833;-64
2021/12/16 10:56:16;;;;;;;;;94.75;85.00;7.00;91.20;;;;;;5055138;28;8783;-66
2021/12/16 10:58:59;;;;;;;;;92.00;84.75;6.80;92.20;;;;;;5055041;28;8751;-64
2021/12/16 11:01:44;;;;;;;;;94.25;87.25;7.00;91.90;;;;;;5054929;28;9421;-63
2021/12/16 11:04:39;;;;;;;;;94.50;87.75;7.50;89.50;;;;;;5065154;28;8795;-67
2021/12/16 11:07:15;;;;;;;;;103.25;99.50;7.60;87.10;;;;;;5064735;28;8814;-66
2021/12/16 11:10:09;;;;;;;;;101.75;98.50;7.60;86.40;;;;;;5072163;28;8773;-67
2021/12/16 11:12:59;;;;;;;;;99.75;99.50;7.70;85.30;;;;;;5072331;28;8780;-67
2021/12/16 11:15:38;;;;;;;;;96.75;92.25;7.50;87.30;;;;;;5070946;28;8776;-67
2021/12/16 11:18:21;;;;;;;;;86.75;76.25;7.80;84.50;;;;;;5068522;28;8761;-67
2021/12/16 11:20:52;;;;;;;;;89.75;78.75;7.30;88.50;;;;;;5073236;28;8867;-67
2021/12/16 11:23:17;;;;;;;;;92.75;85.25;7.40;86.90;;;;;;5073084;28;8748;-67
2021/12/16 11:26:11;;;;;;;;;97.00;83.75;7.30;88.50;;;;;;5071338;28;8761;-67
2021/12/16 11:28:41;;;;;;;;;91.25;78.25;7.10;90.20;;;;;;5071088;28;8749;-67
2021/12/16 11:31:31;;;;;;;;;89.50;79.50;7.00;90.60;;;;;;5070996;28;8769;-67
2021/12/16 11:33:57;;;;;;;;;88.00;76.75;7.20;89.30;;;;;;5072026;28;8827;-67
2021/12/16 11:36:24;;;;;;;;;92.00;82.25;7.30;88.50;;;;;;5073057;28;8760;-67
2021/12/16 11:39:05;;;;;;;;;89.50;79.00;7.50;87.20;;;;;;5073119;28;8867;-66
2021/12/16 11:41:48;;;;;;;;;89.50;79.75;7.20;90.10;;;;;;5069856;28;8829;-67
2021/12/16 11:44:18;;;;;;;;;94.00;88.00;7.20;90.10;;;;;;5057552;28;9138;-67
2021/12/16 11:46:46;;;;;;;;;91.00;80.25;7.20;88.90;;;;;;5054161;28;8807;-71
2021/12/16 11:49:33;;;;;;;;;105.75;96.75;7.00;90.50;;;;;;5064755;28;8808;-70
2021/12/16 11:52:04;;;;;;;;;95.00;88.00;7.10;89.80;;;;;;5071582;28;8765;-69
2021/12/16 11:54:41;;;;;;;;;94.50;90.50;7.40;88.30;;;;;;5069943;28;8812;-68
2021/12/16 11:57:13;;;;;;;;;97.00;88.25;7.10;89.70;;;;;;5070963;28;8799;-70
2021/12/16 12:00:06;;;;;;;;;95.50;89.50;7.00;89.90;;;;;;5072459;28;8780;-69
2021/12/16 12:02:34;;;;;;;;;104.00;99.25;6.60;91.80;;;;;;5069842;28;8853;-70
2021/12/16 12:05:15;;;;;;;;;105.25;99.75;6.50;93.00;;;;;;5070256;28;8841;-70
2021/12/16 12:07:45;;;;;;;;;108.50;104.50;6.50;93.20;;;;;;5070178;28;8780;-68
2021/12/16 12:10:11;;;;;;;;;104.25;101.50;6.70;92.00;;;;;;5072763;28;9403;-70
2021/12/16 12:12:42;;;;;;;;;117.25;111.75;6.70;92.80;;;;;;5070718;28;8800;-69
2021/12/16 12:15:10;;;;;;;;;113.75;112.00;7.00;90.60;;;;;;5071012;28;8793;-69
2021/12/16 12:17:49;;;;;;;;;100.00;98.25;6.60;92.40;;;;;;5072706;28;8745;-69
2021/12/16 12:20:15;;;;;;;;;119.25;116.75;6.60;92.80;;;;;;5072896;28;8781;-70
2021/12/16 12:22:41;;;;;;;;;115.25;115.00;6.60;92.30;;;;;;5071371;28;8761;-71
2021/12/16 12:25:07;;;;;;;;;101.50;98.50;6.70;92.20;;;;;;5072735;28;9411;-70
2021/12/16 12:27:33;;;;;;;;;110.75;107.75;6.70;92.30;;;;;;5071936;28;8783;-70
2021/12/16 12:30:03;;;;;;;;;103.50;99.25;6.90;91.10;;;;;;5071397;28;8849;-71
2021/12/16 12:32:33;;;;;;;;;111.75;109.75;6.90;91.40;;;;;;5072404;28;8783;-71
2021/12/16 12:35:16;;;;;;;;;115.75;109.25;6.90;91.30;;;;;;5075171;28;8784;-71
2021/12/16 12:37:47;;;;;;;;;104.75;103.00;6.70;92.30;;;;;;5072053;28;8781;-70
2021/12/16 12:40:25;;;;;;;;;108.50;104.00;6.70;92.10;;;;;;5073529;28;8884;-71
2021/12/16 12:42:53;;;;;;;;;111.25;104.25;6.90;91.20;;;;;;5070131;28;8775;-70
2021/12/16 12:45:23;;;;;;;;;104.00;100.00;6.90;91.00;;;;;;5074932;28;8788;-68
2021/12/16 12:47:53;;;;;;;;;101.50;97.00;6.70;92.30;;;;;;5074457;28;8862;-68
2021/12/16 12:50:25;;;;;;;;;100.50;98.75;6.60;93.10;;;;;;5072197;28;8858;-68
2021/12/16 12:52:54;;;;;;;;;100.75;98.75;6.60;92.90;;;;;;5072061;28;8815;-69
2021/12/16 12:55:29;;;;;;;;;102.00;97.50;6.60;92.70;;;;;;5074645;28;8800;-68
2021/12/16 12:58:06;;;;;;;;;96.50;88.00;6.50;94.10;;;;;;5071844;28;8794;-68
2021/12/16 13:00:36;;;;;;;;;109.50;104.25;6.40;94.20;;;;;;5057027;28;8751;-68
2021/12/16 13:03:10;;;;;;;;;108.25;104.75;6.40;94.60;;;;;;5068166;28;8777;-68
2021/12/16 13:05:36;;;;;;;;;106.50;104.50;6.60;93.50;;;;;;5065064;28;9432;-68
2021/12/16 13:08:08;;;;;;;;;110.00;108.00;6.70;92.90;;;;;;5062782;28;8788;-68
2021/12/16 13:10:47;;;;;;;;;107.25;104.50;6.80;92.10;;;;;;5076883;28;8786;-68
2021/12/16 13:25:01;;;;;;;;;92.50;81.25;6.60;92.90;;;;;;5076675;28;8780;-68
2021/12/16 13:27:41;;;;;;;;;91.00;81.25;6.50;93.20;;;;;;5076385;28;8818;-68
2021/12/16 13:32:45;;;;;;;;;94.25;87.25;6.30;94.90;;;;;;5076443;28;8772;-65
2021/12/16 13:37:56;;;;;;;;;92.25;84.00;6.30;95.00;;;;;;5076274;28;8829;-66
2021/12/16 13:40:22;;;;;;;;;94.00;85.50;6.60;93.50;;;;;;5076190;28;8768;-65
2021/12/16 13:42:57;;;;;;;;;93.25;85.25;6.60;92.80;;;;;;5075958;28;8768;-66
2021/12/16 13:45:35;;;;;;;;;98.00;89.00;6.60;92.90;;;;;;5075010;28;8775;-63
2021/12/16 14:02:36;;;;;;;;;96.00;87.50;6.60;93.70;;;;;;5074530;28;8749;-66
2021/12/16 14:08:05;;;;;;;;;92.00;80.75;6.30;95.60;;;;;;5073098;28;8827;-65
2021/12/16 14:16:31;;;;;;;;;102.50;99.50;6.70;93.80;;;;;;5073529;28;9402;-65
2021/12/16 14:31:09;;;;;;;;;141.25;135.75;6.50;95.40;;;;;;5071516;28;8737;-66
2021/12/16 14:39:45;;;;;;;;;134.25;128.75;6.20;97.40;;;;;;5068560;28;8764;-71
2021/12/16 14:50:36;;;;;;;;;138.75;130.75;6.40;97.50;;;;;;5073812;28;8808;-64
2021/12/16 14:53:13;;;;;;;;;129.50;125.25;6.30;98.70;;;;;;5063003;28;8801;-66
2021/12/16 14:55:39;;;;;;;;;137.00;129.75;6.40;98.50;;;;;;5054853;28;8762;-65
2021/12/16 14:58:05;;;;;;;;;126.75;122.00;6.50;98.40;;;;;;5071452;28;8761;-65
2021/12/16 15:01:00;;;;;;;;;110.00;104.00;6.50;98.10;;;;;;5073568;28;8791;-66
2021/12/16 15:03:35;;;;;;;;;133.50;127.50;6.80;96.70;;;;;;5063207;28;8772;-67
2021/12/16 15:06:06;;;;;;;;;112.50;108.00;6.60;97.50;;;;;;5073058;28;8907;-66
2021/12/16 15:08:42;;;;;;;;;114.25;111.75;6.50;98.30;;;;;;5071202;28;8772;-66
2021/12/16 15:11:13;;;;;;;;;115.75;105.75;6.50;98.50;;;;;;5070647;28;8846;-64
2021/12/16 15:13:46;;;;;;;;;131.75;119.50;6.40;98.70;;;;;;5073363;28;8796;-66
2021/12/16 15:43:50;;;;;;;;;141.00;131.25;6.20;99.90;;;;;;5071111;28;8769;-64
2021/12/16 15:46:17;;;;;;;;;146.75;142.50;6.20;99.90;;;;;;5069019;28;9414;-64
2021/12/16 15:48:50;;;;;;;;;152.00;142.75;6.30;99.90;;;;;;5058480;28;8799;-65
2021/12/16 15:51:17;;;;;;;;;115.25;112.75;6.30;99.90;;;;;;5059514;28;8822;-65
2021/12/16 15:53:55;;;;;;;;;117.00;116.50;6.50;99.90;;;;;;5073648;28;8902;-63
2021/12/16 15:56:31;;;;;;;;;127.75;123.00;6.70;97.50;;;;;;5071302;28;8765;-63
2021/12/16 15:59:03;;;;;;;;;130.00;125.75;6.70;97.80;;;;;;5073961;28;8768;-65
2021/12/16 16:01:34;;;;;;;;;146.00;137.75;6.50;99.40;;;;;;5074026;28;8761;-66
2021/12/16 16:04:06;;;;;;;;;133.75;128.50;6.30;99.90;;;;;;5073825;28;8826;-64
2021/12/16 16:06:32;;;;;;;;;151.50;146.50;6.30;99.90;;;;;;5073829;28;8801;-70
2021/12/16 16:09:10;;;;;;;;;155.75;151.75;6.30;99.90;;;;;;5074213;28;9411;-63
2021/12/16 16:11:38;;;;;;;;;155.25;152.25;6.20;99.90;;;;;;5078073;28;8761;-65
2021/12/16 16:14:06;;;;;;;;;149.50;144.00;6.40;99.90;;;;;;5077764;28;8807;-65
2021/12/16 16:16:44;;;;;;;;;151.25;145.75;6.40;99.90;;;;;;5077179;28;8908;-66
2021/12/16 16:19:14;;;;;;;;;159.25;152.75;6.30;99.90;;;;;;5075396;28;8903;-65
2021/12/16 16:21:50;;;;;;;;;136.25;129.75;6.40;99.90;;;;;;5077523;28;8766;-66
2021/12/16 16:24:30;;;;;;;;;137.00;134.25;6.60;99.10;;;;;;5077479;28;8776;-65
2021/12/16 16:27:01;;;;;;;;;156.00;148.25;6.40;99.50;;;;;;5057875;28;8779;-64
2021/12/16 16:29:29;;;;;;;;;142.00;135.75;6.50;98.90;;;;;;5058069;28;8908;-70
2021/12/16 16:31:56;;;;;;;;;145.25;139.25;6.20;99.90;;;;;;5078142;28;8752;-64
2021/12/16 16:34:38;;;;;;;;;142.75;138.75;6.10;99.90;;;;;;5077035;28;8857;-65
2021/12/16 16:37:06;;;;;;;;;147.25;145.50;6.20;99.90;;;;;;5077042;28;8788;-68
2021/12/16 16:39:36;;;;;;;;;141.00;135.50;6.20;99.90;;;;;;5077427;28;8764;-71
2021/12/16 16:42:10;;;;;;;;;156.75;152.25;6.30;99.90;;;;;;5077402;28;8757;-63
2021/12/16 16:44:36;;;;;;;;;160.50;152.00;6.50;99.90;;;;;;5077352;28;8780;-62
2021/12/16 16:47:13;;;;;;;;;164.00;155.50;6.50;99.60;;;;;;5077464;28;8944;-63
2021/12/16 16:49:49;;;;;;;;;177.75;171.25;6.40;99.90;;;;;;5077197;28;8792;-63